sensor_id;sensor_type;location;lat;lon;timestamp;pressure;altitude;pressure_sealevel;temperature;humidity
76808;BME280;65758;45.458;11.062;2024-01-11T00:01:28;102164.02;;;2.27;66.77
76808;BME280;65758;45.458;11.062;2024-01-11T00:03:55;102166.70;;;2.22;66.77
76808;BME280;65758;45.458;11.062;2024-01-11T00:06:22;102158.70;;;2.17;66.89
76808;BME280;65758;45.458;11.062;2024-01-11T00:08:49;102161.30;;;2.12;66.81
76808;BME280;65758;45.458;11.062;2024-01-11T00:11:16;102154.84;;;2.07;66.95
76808;BME280;65758;45.458;11.062;2024-01-11T00:13:44;102153.85;;;2.04;66.95
76808;BME280;65758;45.458;11.062;2024-01-11T00:16:11;102154.65;;;2.04;66.81
76808;BME280;65758;45.458;11.062;2024-01-11T00:18:37;102150.64;;;2.02;66.89
76808;BME280;65758;45.458;11.062;2024-01-11T00:21:04;102146.33;;;2.00;66.99
76808;BME280;65758;45.458;11.062;2024-01-11T00:23:31;102142.54;;;1.99;66.92
76808;BME280;65758;45.458;11.062;2024-01-11T00:25:58;102142.17;;;1.97;66.93
76808;BME280;65758;45.458;11.062;2024-01-11T00:28:26;102141.20;;;1.95;66.92
76808;BME280;65758;45.458;11.062;2024-01-11T00:30:53;102137.89;;;1.96;66.86
76808;BME280;65758;45.458;11.062;2024-01-11T00:33:20;102134.00;;;1.97;66.63
76808;BME280;65758;45.458;11.062;2024-01-11T00:35:47;102130.79;;;1.99;66.61
76808;BME280;65758;45.458;11.062;2024-01-11T00:38:14;102131.50;;;2.05;66.79
76808;BME280;65758;45.458;11.062;2024-01-11T00:40:41;102131.32;;;2.09;66.21
76808;BME280;65758;45.458;11.062;2024-01-11T00:43:07;102128.05;;;2.11;66.08
76808;BME280;65758;45.458;11.062;2024-01-11T00:45:34;102132.26;;;2.14;65.88
76808;BME280;65758;45.458;11.062;2024-01-11T00:48:02;102131.48;;;2.13;65.60
76808;BME280;65758;45.458;11.062;2024-01-11T00:50:30;102132.62;;;2.10;65.58
76808;BME280;65758;45.458;11.062;2024-01-11T00:52:57;102130.77;;;2.09;65.58
76808;BME280;65758;45.458;11.062;2024-01-11T00:55:24;102133.03;;;2.08;65.53
76808;BME280;65758;45.458;11.062;2024-01-11T00:57:51;102133.70;;;2.07;65.49
76808;BME280;65758;45.458;11.062;2024-01-11T01:00:18;102129.34;;;2.05;65.36
76808;BME280;65758;45.458;11.062;2024-01-11T01:02:45;102127.45;;;2.04;65.41
76808;BME280;65758;45.458;11.062;2024-01-11T01:05:12;102124.95;;;2.04;65.59
76808;BME280;65758;45.458;11.062;2024-01-11T01:07:40;102127.38;;;2.05;65.61
76808;BME280;65758;45.458;11.062;2024-01-11T01:10:07;102124.39;;;2.04;65.37
76808;BME280;65758;45.458;11.062;2024-01-11T01:12:35;102129.99;;;2.04;65.43
76808;BME280;65758;45.458;11.062;2024-01-11T01:15:01;102134.55;;;2.03;65.47
76808;BME280;65758;45.458;11.062;2024-01-11T01:17:28;102133.60;;;2.04;65.39
76808;BME280;65758;45.458;11.062;2024-01-11T01:19:56;102137.58;;;2.06;65.58
76808;BME280;65758;45.458;11.062;2024-01-11T01:22:24;102133.09;;;2.07;65.41
76808;BME280;65758;45.458;11.062;2024-01-11T01:24:51;102135.15;;;2.10;65.94
76808;BME280;65758;45.458;11.062;2024-01-11T01:27:17;102132.00;;;2.12;66.15
76808;BME280;65758;45.458;11.062;2024-01-11T01:29:45;102131.61;;;2.10;66.20
76808;BME280;65758;45.458;11.062;2024-01-11T01:32:12;102127.05;;;2.09;66.39
76808;BME280;65758;45.458;11.062;2024-01-11T01:34:39;102123.94;;;2.03;66.37
76808;BME280;65758;45.458;11.062;2024-01-11T01:37:06;102118.89;;;1.99;66.59
76808;BME280;65758;45.458;11.062;2024-01-11T01:39:33;102122.23;;;1.94;66.83
76808;BME280;65758;45.458;11.062;2024-01-11T01:42:04;102126.13;;;1.92;66.85
76808;BME280;65758;45.458;11.062;2024-01-11T01:44:31;102122.48;;;1.91;66.85
76808;BME280;65758;45.458;11.062;2024-01-11T01:46:57;102124.84;;;1.91;66.91
76808;BME280;65758;45.458;11.062;2024-01-11T01:49:25;102120.74;;;1.90;66.87
76808;BME280;65758;45.458;11.062;2024-01-11T01:51:53;102117.73;;;1.92;66.76
76808;BME280;65758;45.458;11.062;2024-01-11T01:54:21;102119.24;;;1.95;66.95
76808;BME280;65758;45.458;11.062;2024-01-11T01:56:49;102115.90;;;1.98;66.91
76808;BME280;65758;45.458;11.062;2024-01-11T01:59:16;102118.21;;;2.01;66.73
76808;BME280;65758;45.458;11.062;2024-01-11T02:01:43;102110.72;;;2.02;66.67
76808;BME280;65758;45.458;11.062;2024-01-11T02:04:11;102108.76;;;2.02;66.57
76808;BME280;65758;45.458;11.062;2024-01-11T02:06:38;102107.93;;;2.01;66.65
76808;BME280;65758;45.458;11.062;2024-01-11T02:09:06;102106.61;;;2.00;66.55
76808;BME280;65758;45.458;11.062;2024-01-11T02:11:34;102109.05;;;1.97;66.38
76808;BME280;65758;45.458;11.062;2024-01-11T02:14:01;102106.06;;;1.91;66.45
76808;BME280;65758;45.458;11.062;2024-01-11T02:16:29;102105.65;;;1.88;66.45
76808;BME280;65758;45.458;11.062;2024-01-11T02:18:55;102103.19;;;1.83;66.69
76808;BME280;65758;45.458;11.062;2024-01-11T02:21:24;102106.63;;;1.79;66.70
76808;BME280;65758;45.458;11.062;2024-01-11T02:24:10;102109.83;;;1.74;66.81
76808;BME280;65758;45.458;11.062;2024-01-11T02:26:57;102106.38;;;1.70;66.95
76808;BME280;65758;45.458;11.062;2024-01-11T02:29:25;102106.05;;;1.70;66.84
76808;BME280;65758;45.458;11.062;2024-01-11T02:31:52;102109.02;;;1.69;66.82
76808;BME280;65758;45.458;11.062;2024-01-11T02:34:20;102104.95;;;1.68;66.95
76808;BME280;65758;45.458;11.062;2024-01-11T02:36:47;102105.40;;;1.67;67.08
76808;BME280;65758;45.458;11.062;2024-01-11T02:39:14;102101.28;;;1.67;67.20
76808;BME280;65758;45.458;11.062;2024-01-11T02:41:44;102101.98;;;1.67;67.05
76808;BME280;65758;45.458;11.062;2024-01-11T02:44:11;102098.85;;;1.68;67.08
76808;BME280;65758;45.458;11.062;2024-01-11T02:46:38;102096.27;;;1.67;67.01
76808;BME280;65758;45.458;11.062;2024-01-11T02:49:05;102090.22;;;1.66;66.97
76808;BME280;65758;45.458;11.062;2024-01-11T02:51:31;102093.55;;;1.63;66.81
76808;BME280;65758;45.458;11.062;2024-01-11T02:53:58;102088.24;;;1.60;66.77
76808;BME280;65758;45.458;11.062;2024-01-11T02:56:25;102085.90;;;1.58;66.94
76808;BME280;65758;45.458;11.062;2024-01-11T02:58:54;102082.60;;;1.56;66.88
76808;BME280;65758;45.458;11.062;2024-01-11T03:01:21;102081.80;;;1.55;66.81
76808;BME280;65758;45.458;11.062;2024-01-11T03:03:48;102078.02;;;1.54;66.76
76808;BME280;65758;45.458;11.062;2024-01-11T03:06:18;102074.95;;;1.52;66.83
76808;BME280;65758;45.458;11.062;2024-01-11T03:08:49;102073.20;;;1.51;66.87
76808;BME280;65758;45.458;11.062;2024-01-11T03:11:16;102073.09;;;1.50;66.83
76808;BME280;65758;45.458;11.062;2024-01-11T03:13:43;102068.43;;;1.48;66.71
76808;BME280;65758;45.458;11.062;2024-01-11T03:16:10;102067.11;;;1.45;66.87
76808;BME280;65758;45.458;11.062;2024-01-11T03:18:37;102065.40;;;1.42;66.86
76808;BME280;65758;45.458;11.062;2024-01-11T03:21:04;102066.09;;;1.40;66.75
76808;BME280;65758;45.458;11.062;2024-01-11T03:23:31;102063.23;;;1.36;66.77
76808;BME280;65758;45.458;11.062;2024-01-11T03:25:58;102060.89;;;1.32;66.97
76808;BME280;65758;45.458;11.062;2024-01-11T03:28:25;102057.63;;;1.30;66.95
76808;BME280;65758;45.458;11.062;2024-01-11T03:30:52;102055.36;;;1.30;66.79
76808;BME280;65758;45.458;11.062;2024-01-11T03:33:19;102051.62;;;1.27;66.66
76808;BME280;65758;45.458;11.062;2024-01-11T03:35:47;102045.51;;;1.25;66.75
76808;BME280;65758;45.458;11.062;2024-01-11T03:38:13;102044.06;;;1.23;66.85
76808;BME280;65758;45.458;11.062;2024-01-11T03:40:40;102043.49;;;1.19;66.89
76808;BME280;65758;45.458;11.062;2024-01-11T03:43:07;102045.16;;;1.17;66.79
76808;BME280;65758;45.458;11.062;2024-01-11T03:45:34;102043.98;;;1.16;66.75
76808;BME280;65758;45.458;11.062;2024-01-11T03:48:01;102044.08;;;1.17;66.88
76808;BME280;65758;45.458;11.062;2024-01-11T03:50:28;102041.70;;;1.17;66.89
76808;BME280;65758;45.458;11.062;2024-01-11T03:52:54;102042.49;;;1.18;66.80
76808;BME280;65758;45.458;11.062;2024-01-11T03:55:21;102038.65;;;1.17;66.73
76808;BME280;65758;45.458;11.062;2024-01-11T03:57:48;102039.10;;;1.16;66.66
76808;BME280;65758;45.458;11.062;2024-01-11T04:00:15;102037.77;;;1.15;66.84
76808;BME280;65758;45.458;11.062;2024-01-11T04:02:42;102035.75;;;1.13;66.67
76808;BME280;65758;45.458;11.062;2024-01-11T04:05:09;102034.98;;;1.12;66.69
76808;BME280;65758;45.458;11.062;2024-01-11T04:07:36;102032.27;;;1.10;66.66
76808;BME280;65758;45.458;11.062;2024-01-11T04:10:03;102028.59;;;1.09;66.63
76808;BME280;65758;45.458;11.062;2024-01-11T04:12:30;102032.41;;;1.08;66.87
76808;BME280;65758;45.458;11.062;2024-01-11T04:14:57;102030.29;;;1.08;66.80
76808;BME280;65758;45.458;11.062;2024-01-11T04:17:24;102032.00;;;1.09;67.01
76808;BME280;65758;45.458;11.062;2024-01-11T04:19:51;102029.97;;;1.10;67.09
76808;BME280;65758;45.458;11.062;2024-01-11T04:22:18;102028.84;;;1.10;67.02
76808;BME280;65758;45.458;11.062;2024-01-11T04:24:45;102029.30;;;1.09;66.85
76808;BME280;65758;45.458;11.062;2024-01-11T04:27:11;102028.16;;;1.08;66.88
76808;BME280;65758;45.458;11.062;2024-01-11T04:29:38;102025.44;;;1.06;66.82
76808;BME280;65758;45.458;11.062;2024-01-11T04:32:05;102021.75;;;1.03;66.85
76808;BME280;65758;45.458;11.062;2024-01-11T04:34:32;102020.89;;;0.99;67.04
76808;BME280;65758;45.458;11.062;2024-01-11T04:36:59;102020.38;;;0.96;67.16
76808;BME280;65758;45.458;11.062;2024-01-11T04:39:26;102021.73;;;0.95;67.19
76808;BME280;65758;45.458;11.062;2024-01-11T04:41:52;102022.73;;;0.96;67.28
76808;BME280;65758;45.458;11.062;2024-01-11T04:44:19;102021.20;;;0.99;67.43
76808;BME280;65758;45.458;11.062;2024-01-11T04:46:46;102016.52;;;1.03;67.48
76808;BME280;65758;45.458;11.062;2024-01-11T04:49:13;102016.08;;;1.07;67.35
76808;BME280;65758;45.458;11.062;2024-01-11T04:51:40;102016.07;;;1.11;67.46
76808;BME280;65758;45.458;11.062;2024-01-11T04:54:07;102013.38;;;1.13;67.46
76808;BME280;65758;45.458;11.062;2024-01-11T04:56:34;102012.29;;;1.15;67.27
76808;BME280;65758;45.458;11.062;2024-01-11T04:59:01;102011.22;;;1.15;67.41
76808;BME280;65758;45.458;11.062;2024-01-11T05:01:27;102009.63;;;1.14;67.43
76808;BME280;65758;45.458;11.062;2024-01-11T05:03:54;102014.02;;;1.15;67.43
76808;BME280;65758;45.458;11.062;2024-01-11T05:06:22;102009.16;;;1.16;67.42
76808;BME280;65758;45.458;11.062;2024-01-11T05:08:50;102013.73;;;1.17;67.33
76808;BME280;65758;45.458;11.062;2024-01-11T05:11:24;102012.07;;;1.17;67.36
76808;BME280;65758;45.458;11.062;2024-01-11T05:13:52;102009.86;;;1.18;67.16
76808;BME280;65758;45.458;11.062;2024-01-11T05:16:24;102006.11;;;1.19;67.12
76808;BME280;65758;45.458;11.062;2024-01-11T05:18:52;102007.66;;;1.18;67.12
76808;BME280;65758;45.458;11.062;2024-01-11T05:21:20;102005.38;;;1.18;67.19
76808;BME280;65758;45.458;11.062;2024-01-11T05:23:48;102003.33;;;1.16;67.13
76808;BME280;65758;45.458;11.062;2024-01-11T05:26:16;102008.25;;;1.14;67.10
76808;BME280;65758;45.458;11.062;2024-01-11T05:28:44;102007.98;;;1.11;67.10
76808;BME280;65758;45.458;11.062;2024-01-11T05:31:12;102007.80;;;1.09;67.28
76808;BME280;65758;45.458;11.062;2024-01-11T05:33:40;102013.77;;;1.12;67.58
76808;BME280;65758;45.458;11.062;2024-01-11T05:36:07;102009.73;;;1.15;67.56
76808;BME280;65758;45.458;11.062;2024-01-11T05:38:34;102006.76;;;1.16;67.31
76808;BME280;65758;45.458;11.062;2024-01-11T05:41:02;102005.66;;;1.18;67.33
76808;BME280;65758;45.458;11.062;2024-01-11T05:43:29;102004.46;;;1.22;67.12
76808;BME280;65758;45.458;11.062;2024-01-11T05:46:14;102005.95;;;1.25;67.08
76808;BME280;65758;45.458;11.062;2024-01-11T05:48:42;102002.70;;;1.27;67.17
76808;BME280;65758;45.458;11.062;2024-01-11T05:51:09;102002.98;;;1.30;66.98
76808;BME280;65758;45.458;11.062;2024-01-11T05:53:36;102000.64;;;1.32;66.99
76808;BME280;65758;45.458;11.062;2024-01-11T05:56:10;101996.52;;;1.34;66.81
76808;BME280;65758;45.458;11.062;2024-01-11T05:58:37;101989.28;;;1.37;66.63
76808;BME280;65758;45.458;11.062;2024-01-11T06:01:05;101991.39;;;1.37;66.49
76808;BME280;65758;45.458;11.062;2024-01-11T06:03:33;101997.13;;;1.37;66.43
76808;BME280;65758;45.458;11.062;2024-01-11T06:06:02;102000.08;;;1.39;66.64
76808;BME280;65758;45.458;11.062;2024-01-11T06:08:30;101999.62;;;1.40;66.51
76808;BME280;65758;45.458;11.062;2024-01-11T06:10:58;101995.59;;;1.40;66.36
76808;BME280;65758;45.458;11.062;2024-01-11T06:13:25;101991.77;;;1.41;66.26
76808;BME280;65758;45.458;11.062;2024-01-11T06:15:53;101991.67;;;1.42;66.29
76808;BME280;65758;45.458;11.062;2024-01-11T06:18:20;101992.58;;;1.42;66.29
76808;BME280;65758;45.458;11.062;2024-01-11T06:20:47;101995.45;;;1.42;66.29
76808;BME280;65758;45.458;11.062;2024-01-11T06:23:15;101994.29;;;1.41;67.07
76808;BME280;65758;45.458;11.062;2024-01-11T06:25:44;101993.48;;;1.40;67.39
76808;BME280;65758;45.458;11.062;2024-01-11T06:28:13;101989.98;;;1.41;67.47
76808;BME280;65758;45.458;11.062;2024-01-11T06:30:40;101990.09;;;1.42;67.33
76808;BME280;65758;45.458;11.062;2024-01-11T06:33:07;101987.49;;;1.42;67.30
76808;BME280;65758;45.458;11.062;2024-01-11T06:35:34;101984.80;;;1.42;67.20
76808;BME280;65758;45.458;11.062;2024-01-11T06:38:01;101985.71;;;1.42;67.24
76808;BME280;65758;45.458;11.062;2024-01-11T06:40:29;101981.98;;;1.44;67.22
76808;BME280;65758;45.458;11.062;2024-01-11T06:42:56;101982.90;;;1.48;67.17
76808;BME280;65758;45.458;11.062;2024-01-11T06:45:23;101980.61;;;1.51;67.21
76808;BME280;65758;45.458;11.062;2024-01-11T06:47:50;101980.89;;;1.54;67.17
76808;BME280;65758;45.458;11.062;2024-01-11T06:50:17;101980.34;;;1.56;67.13
76808;BME280;65758;45.458;11.062;2024-01-11T06:52:44;101980.45;;;1.57;67.33
76808;BME280;65758;45.458;11.062;2024-01-11T06:55:11;101980.59;;;1.57;67.00
76808;BME280;65758;45.458;11.062;2024-01-11T06:57:38;101979.48;;;1.56;67.00
76808;BME280;65758;45.458;11.062;2024-01-11T07:00:05;101981.77;;;1.54;66.92
76808;BME280;65758;45.458;11.062;2024-01-11T07:02:34;101980.53;;;1.52;66.99
76808;BME280;65758;45.458;11.062;2024-01-11T07:05:02;101978.60;;;1.51;67.02
76808;BME280;65758;45.458;11.062;2024-01-11T07:07:29;101972.80;;;1.48;67.10
76808;BME280;65758;45.458;11.062;2024-01-11T07:09:56;101967.63;;;1.48;67.21
76808;BME280;65758;45.458;11.062;2024-01-11T07:12:23;101968.30;;;1.50;67.22
76808;BME280;65758;45.458;11.062;2024-01-11T07:14:50;101963.67;;;1.54;67.32
76808;BME280;65758;45.458;11.062;2024-01-11T07:17:17;101962.17;;;1.58;67.28
76808;BME280;65758;45.458;11.062;2024-01-11T07:19:44;101968.17;;;1.63;67.33
76808;BME280;65758;45.458;11.062;2024-01-11T07:22:11;101969.89;;;1.68;67.25
76808;BME280;65758;45.458;11.062;2024-01-11T07:24:37;101973.62;;;1.72;67.21
76808;BME280;65758;45.458;11.062;2024-01-11T07:27:05;101973.52;;;1.75;67.20
76808;BME280;65758;45.458;11.062;2024-01-11T07:29:33;101972.33;;;1.78;67.19
76808;BME280;65758;45.458;11.062;2024-01-11T07:32:00;101974.14;;;1.80;67.14
76808;BME280;65758;45.458;11.062;2024-01-11T07:34:27;101972.97;;;1.81;66.87
76808;BME280;65758;45.458;11.062;2024-01-11T07:36:55;101976.55;;;1.79;66.80
76808;BME280;65758;45.458;11.062;2024-01-11T07:39:23;101981.77;;;1.75;66.99
76808;BME280;65758;45.458;11.062;2024-01-11T07:41:51;101985.20;;;1.72;67.20
76808;BME280;65758;45.458;11.062;2024-01-11T07:44:19;101989.69;;;1.68;67.18
76808;BME280;65758;45.458;11.062;2024-01-11T07:46:47;101988.03;;;1.64;67.28
76808;BME280;65758;45.458;11.062;2024-01-11T07:49:20;101989.98;;;1.65;67.35
76808;BME280;65758;45.458;11.062;2024-01-11T07:51:48;101985.70;;;1.66;67.14
76808;BME280;65758;45.458;11.062;2024-01-11T07:54:15;101988.48;;;1.69;67.28
76808;BME280;65758;45.458;11.062;2024-01-11T07:56:42;101991.95;;;1.72;67.16
76808;BME280;65758;45.458;11.062;2024-01-11T07:59:09;101989.84;;;1.76;67.13
76808;BME280;65758;45.458;11.062;2024-01-11T08:01:40;101988.85;;;1.79;67.22
76808;BME280;65758;45.458;11.062;2024-01-11T08:04:07;101990.34;;;1.82;67.38
76808;BME280;65758;45.458;11.062;2024-01-11T08:06:34;101987.59;;;1.85;67.47
76808;BME280;65758;45.458;11.062;2024-01-11T08:09:01;101990.75;;;1.89;67.24
76808;BME280;65758;45.458;11.062;2024-01-11T08:11:31;101988.08;;;1.93;67.17
76808;BME280;65758;45.458;11.062;2024-01-11T08:14:04;101985.55;;;1.97;67.01
76808;BME280;65758;45.458;11.062;2024-01-11T08:16:33;101982.69;;;1.99;67.11
76808;BME280;65758;45.458;11.062;2024-01-11T08:19:00;101985.16;;;2.04;67.16
76808;BME280;65758;45.458;11.062;2024-01-11T08:21:28;101985.16;;;2.07;67.08
76808;BME280;65758;45.458;11.062;2024-01-11T08:23:55;101986.37;;;2.10;67.37
76808;BME280;65758;45.458;11.062;2024-01-11T08:26:28;101986.48;;;2.14;67.20
76808;BME280;65758;45.458;11.062;2024-01-11T08:28:57;101988.66;;;2.18;67.45
76808;BME280;65758;45.458;11.062;2024-01-11T08:31:24;101988.27;;;2.24;67.70
76808;BME280;65758;45.458;11.062;2024-01-11T08:33:52;101987.10;;;2.34;67.80
76808;BME280;65758;45.458;11.062;2024-01-11T08:36:20;101983.52;;;2.42;68.05
76808;BME280;65758;45.458;11.062;2024-01-11T08:38:47;101983.77;;;2.51;68.15
76808;BME280;65758;45.458;11.062;2024-01-11T08:41:14;101981.80;;;2.64;68.14
76808;BME280;65758;45.458;11.062;2024-01-11T08:43:41;101980.32;;;2.77;68.02
76808;BME280;65758;45.458;11.062;2024-01-11T08:46:08;101986.89;;;2.92;67.88
76808;BME280;65758;45.458;11.062;2024-01-11T08:48:34;101988.73;;;3.02;67.63
76808;BME280;65758;45.458;11.062;2024-01-11T08:51:02;101989.76;;;3.12;67.51
76808;BME280;65758;45.458;11.062;2024-01-11T08:53:28;101990.21;;;3.20;67.62
76808;BME280;65758;45.458;11.062;2024-01-11T08:55:55;101989.70;;;3.27;67.29
76808;BME280;65758;45.458;11.062;2024-01-11T08:58:23;101986.83;;;3.33;66.98
76808;BME280;65758;45.458;11.062;2024-01-11T09:00:51;101987.52;;;3.39;66.75
76808;BME280;65758;45.458;11.062;2024-01-11T09:03:18;101984.33;;;3.44;66.70
76808;BME280;65758;45.458;11.062;2024-01-11T09:05:45;101981.15;;;3.48;66.59
76808;BME280;65758;45.458;11.062;2024-01-11T09:08:12;101980.34;;;3.53;66.62
76808;BME280;65758;45.458;11.062;2024-01-11T09:10:39;101976.70;;;3.57;66.40
76808;BME280;65758;45.458;11.062;2024-01-11T09:13:08;101978.30;;;3.62;66.62
76808;BME280;65758;45.458;11.062;2024-01-11T09:15:38;101972.35;;;3.66;66.23
76808;BME280;65758;45.458;11.062;2024-01-11T09:18:04;101974.45;;;3.72;66.20
76808;BME280;65758;45.458;11.062;2024-01-11T09:20:32;101973.58;;;3.77;66.10
76808;BME280;65758;45.458;11.062;2024-01-11T09:23:00;101972.41;;;3.83;66.16
76808;BME280;65758;45.458;11.062;2024-01-11T09:25:30;101968.13;;;3.90;66.20
76808;BME280;65758;45.458;11.062;2024-01-11T09:27:57;101962.98;;;3.97;66.16
76808;BME280;65758;45.458;11.062;2024-01-11T09:30:24;101959.42;;;4.03;65.89
76808;BME280;65758;45.458;11.062;2024-01-11T09:32:52;101956.23;;;4.09;66.28
76808;BME280;65758;45.458;11.062;2024-01-11T09:35:19;101958.87;;;4.16;66.05
76808;BME280;65758;45.458;11.062;2024-01-11T09:37:46;101960.04;;;4.22;66.01
76808;BME280;65758;45.458;11.062;2024-01-11T09:40:13;101955.84;;;4.29;67.17
76808;BME280;65758;45.458;11.062;2024-01-11T09:42:40;101958.34;;;4.38;66.84
76808;BME280;65758;45.458;11.062;2024-01-11T09:45:16;101961.92;;;4.44;66.35
76808;BME280;65758;45.458;11.062;2024-01-11T09:47:44;101959.25;;;4.49;66.20
76808;BME280;65758;45.458;11.062;2024-01-11T09:50:17;101948.91;;;4.52;65.75
76808;BME280;65758;45.458;11.062;2024-01-11T09:52:47;101945.78;;;4.55;66.15
76808;BME280;65758;45.458;11.062;2024-01-11T09:55:16;101942.33;;;4.58;66.08
76808;BME280;65758;45.458;11.062;2024-01-11T09:57:47;101940.21;;;4.63;66.30
76808;BME280;65758;45.458;11.062;2024-01-11T10:00:23;101938.87;;;4.69;66.69
76808;BME280;65758;45.458;11.062;2024-01-11T10:02:50;101937.52;;;4.75;66.22
76808;BME280;65758;45.458;11.062;2024-01-11T10:05:18;101931.84;;;4.77;65.87
76808;BME280;65758;45.458;11.062;2024-01-11T10:07:46;101933.24;;;4.81;66.18
76808;BME280;65758;45.458;11.062;2024-01-11T10:10:12;101929.48;;;4.86;66.51
76808;BME280;65758;45.458;11.062;2024-01-11T10:12:42;101928.08;;;4.91;66.52
76808;BME280;65758;45.458;11.062;2024-01-11T10:15:10;101922.92;;;4.95;67.61
76808;BME280;65758;45.458;11.062;2024-01-11T10:17:41;101919.90;;;5.00;66.71
76808;BME280;65758;45.458;11.062;2024-01-11T10:20:13;101917.68;;;5.02;66.04
76808;BME280;65758;45.458;11.062;2024-01-11T10:22:51;101910.77;;;5.04;66.28
76808;BME280;65758;45.458;11.062;2024-01-11T10:25:19;101909.84;;;5.06;66.65
76808;BME280;65758;45.458;11.062;2024-01-11T10:27:46;101909.33;;;5.10;66.55
76808;BME280;65758;45.458;11.062;2024-01-11T10:30:13;101904.05;;;5.16;67.44
76808;BME280;65758;45.458;11.062;2024-01-11T10:32:44;101898.67;;;5.22;66.78
76808;BME280;65758;45.458;11.062;2024-01-11T10:35:11;101898.64;;;5.29;66.72
76808;BME280;65758;45.458;11.062;2024-01-11T10:37:38;101900.12;;;5.35;66.19
76808;BME280;65758;45.458;11.062;2024-01-11T10:40:07;101900.81;;;5.41;66.19
76808;BME280;65758;45.458;11.062;2024-01-11T10:42:42;101897.13;;;5.45;66.29
76808;BME280;65758;45.458;11.062;2024-01-11T10:45:17;101897.13;;;5.51;66.70
76808;BME280;65758;45.458;11.062;2024-01-11T10:47:55;101893.44;;;5.60;66.35
76808;BME280;65758;45.458;11.062;2024-01-11T10:50:30;101890.88;;;5.65;66.98
76808;BME280;65758;45.458;11.062;2024-01-11T10:53:23;101885.17;;;5.74;67.54
76808;BME280;65758;45.458;11.062;2024-01-11T10:55:52;101881.02;;;5.83;67.58
76808;BME280;65758;45.458;11.062;2024-01-11T10:58:20;101876.60;;;5.90;68.57
76808;BME280;65758;45.458;11.062;2024-01-11T11:00:49;101872.77;;;5.98;68.04
76808;BME280;65758;45.458;11.062;2024-01-11T11:03:18;101866.23;;;6.02;67.68
76808;BME280;65758;45.458;11.062;2024-01-11T11:05:48;101860.17;;;6.06;68.25
76808;BME280;65758;45.458;11.062;2024-01-11T11:08:19;101851.29;;;6.07;66.77
76808;BME280;65758;45.458;11.062;2024-01-11T11:10:48;101847.98;;;6.05;66.74
76808;BME280;65758;45.458;11.062;2024-01-11T11:13:15;101850.73;;;6.06;66.76
76808;BME280;65758;45.458;11.062;2024-01-11T11:15:46;101842.19;;;6.08;66.88
76808;BME280;65758;45.458;11.062;2024-01-11T11:18:16;101839.08;;;6.13;67.63
76808;BME280;65758;45.458;11.062;2024-01-11T11:20:45;101837.11;;;6.17;67.26
76808;BME280;65758;45.458;11.062;2024-01-11T11:23:15;101833.27;;;6.21;67.29
76808;BME280;65758;45.458;11.062;2024-01-11T11:25:48;101825.83;;;6.26;66.65
76808;BME280;65758;45.458;11.062;2024-01-11T11:28:17;101822.13;;;6.29;66.89
76808;BME280;65758;45.458;11.062;2024-01-11T11:30:48;101821.27;;;6.33;66.20
76808;BME280;65758;45.458;11.062;2024-01-11T11:33:17;101816.23;;;6.36;66.26
76808;BME280;65758;45.458;11.062;2024-01-11T11:35:49;101811.33;;;6.39;66.93
76808;BME280;65758;45.458;11.062;2024-01-11T11:38:21;101809.59;;;6.43;66.12
76808;BME280;65758;45.458;11.062;2024-01-11T11:40:52;101801.30;;;6.43;65.61
76808;BME280;65758;45.458;11.062;2024-01-11T11:43:21;101802.52;;;6.43;65.78
76808;BME280;65758;45.458;11.062;2024-01-11T11:45:49;101799.66;;;6.44;65.39
76808;BME280;65758;45.458;11.062;2024-01-11T11:53:36;101790.09;;;6.52;66.43
76808;BME280;65758;45.458;11.062;2024-01-11T11:56:04;101784.73;;;6.57;67.58
76808;BME280;65758;45.458;11.062;2024-01-11T11:58:33;101777.68;;;6.60;66.35
76808;BME280;65758;45.458;11.062;2024-01-11T12:01:02;101776.91;;;6.62;65.78
76808;BME280;65758;45.458;11.062;2024-01-11T12:03:34;101773.48;;;6.65;67.41
76808;BME280;65758;45.458;11.062;2024-01-11T12:06:06;101771.13;;;6.70;66.02
76808;BME280;65758;45.458;11.062;2024-01-11T12:08:34;101773.90;;;6.71;65.02
76808;BME280;65758;45.458;11.062;2024-01-11T12:11:06;101774.58;;;6.71;64.80
76808;BME280;65758;45.458;11.062;2024-01-11T12:13:33;101769.16;;;6.71;65.66
76808;BME280;65758;45.458;11.062;2024-01-11T12:16:02;101766.30;;;6.76;65.61
76808;BME280;65758;45.458;11.062;2024-01-11T12:18:30;101765.70;;;6.79;65.52
76808;BME280;65758;45.458;11.062;2024-01-11T12:20:57;101765.61;;;6.85;66.05
76808;BME280;65758;45.458;11.062;2024-01-11T12:23:24;101763.83;;;6.89;64.85
76808;BME280;65758;45.458;11.062;2024-01-11T12:25:51;101749.55;;;6.93;64.86
76808;BME280;65758;45.458;11.062;2024-01-11T12:28:17;101743.21;;;6.95;64.17
76808;BME280;65758;45.458;11.062;2024-01-11T12:30:45;101739.55;;;6.97;66.13
76808;BME280;65758;45.458;11.062;2024-01-11T12:33:12;101742.81;;;7.01;65.24
76808;BME280;65758;45.458;11.062;2024-01-11T12:35:40;101739.90;;;7.03;64.30
76808;BME280;65758;45.458;11.062;2024-01-11T12:38:08;101734.10;;;7.07;65.36
76808;BME280;65758;45.458;11.062;2024-01-11T12:40:36;101728.04;;;7.12;66.02
76808;BME280;65758;45.458;11.062;2024-01-11T12:43:04;101729.52;;;7.18;67.17
76808;BME280;65758;45.458;11.062;2024-01-11T12:45:32;101726.90;;;7.25;65.72
76808;BME280;65758;45.458;11.062;2024-01-11T12:47:59;101722.92;;;7.27;64.47
76808;BME280;65758;45.458;11.062;2024-01-11T12:50:27;101715.52;;;7.28;65.37
76808;BME280;65758;45.458;11.062;2024-01-11T12:53:12;101712.71;;;7.30;64.36
76808;BME280;65758;45.458;11.062;2024-01-11T12:55:46;101705.92;;;7.29;64.98
76808;BME280;65758;45.458;11.062;2024-01-11T12:58:23;101702.64;;;7.31;64.23
76808;BME280;65758;45.458;11.062;2024-01-11T13:00:53;101699.89;;;7.31;63.86